Weather History for Pinedale, WY

Change the Weather History Date:

Sunday, July 21, 2013

  Actual Average (KBPI) Record (KBPI)
Temperature  
Mean Temperature 60 °F 63 °F  
Max Temperature 84 °F 82 °F 93 °F (2005)
Min Temperature 37 °F 44 °F 31 °F (1987)
Degree Days  
Heating Degree Days 4 3  
Month to date heating degree days 85  
Since 1 June heating degree days 390  
Since 1 July heating degree days 85  
Cooling Degree Days 0 1  
Month to date cooling degree days 13  
Year to date cooling degree days 15  
Since 1 June cooling degree days 15  
Growing Degree Days 10 (Base 50)    
Moisture  
Dew Point 28 °F    
Average Humidity 34    
Maximum Humidity 81    
Minimum Humidity 8    
Precipitation  
Precipitation 0.00 in 0.03 in 0.31 in (2010)
Month to date precipitation 0.43  
Year to date precipitation 3.69  
Sea Level Pressure  
Sea Level Pressure 30.14 in    
Wind  
Wind Speed 7 mph (WNW)    
Max Wind Speed 21 mph    
Max Gust Speed 28 mph    
Visibility 10 miles    
Events      
T = Trace of Precipitation, MM = Missing Value Source: NWS Daily Summary

Daily Weather History Graph

Daily Weather History Graph

Search for Another Location

Airport:

Trip Planner

Search our weather history database for the weather conditions in past years. The results will help you decide how hot, cold, wet, or windy it might be!

Date:

Astronomy

Jul. 21, 2013 Rise Set
Actual Time 6:00 AM MDT 8:50 PM MDT
Civil Twilight 5:26 AM MDT 9:23 PM MDT
Nautical Twilight 4:44 AM MDT 10:05 PM MDT
Astronomical Twilight 3:55 AM MDT 10:54 PM MDT
Moon 7:50 PM MDT (7/21) 4:50 AM MDT (7/21)
Length of Visible Light 15h 57m
Length of Day
14h 50m
Waxing Gibbous, 98% of the Moon is Illuminated
Jul 21
Waxing Gibbous
Jul 22
Full
Jul 29
Last Quarter
Aug 6
New
Aug 14
First Quarter

Hourly Weather History & Observations

Time (MDT) Temp. Windchill Dew Point Humidity Pressure Visibility Wind Dir Wind Speed Gust Speed Precip Events Conditions
12:15 AM 51.8 °F - 32.0 °F 47% 30.16 in 10.0 mi West 5.8 mph - N/A   Clear
12:35 AM 48.2 °F - 33.8 °F 58% 30.15 in 10.0 mi WNW 6.9 mph - N/A   Clear
12:55 AM 48.2 °F - 33.8 °F 58% 30.15 in 10.0 mi West 8.1 mph - N/A   Clear
1:15 AM 48.2 °F - 32.0 °F 54% 30.15 in 10.0 mi WNW 4.6 mph - N/A   Clear
1:35 AM 50.0 °F - 33.8 °F 54% 30.14 in 10.0 mi NW 8.1 mph - N/A   Clear
1:55 AM 50.0 °F - 32.0 °F 50% 30.14 in 10.0 mi WNW 5.8 mph - N/A   Clear
2:15 AM 46.4 °F 42.9 °F 32.0 °F 57% 30.15 in 10.0 mi WNW 6.9 mph - N/A   Clear
2:35 AM 44.6 °F 43.1 °F 32.0 °F 61% 30.14 in 10.0 mi WNW 3.5 mph - N/A   Clear
2:55 AM 44.6 °F 40.7 °F 32.0 °F 61% 30.14 in 10.0 mi West 6.9 mph - N/A   Clear
3:15 AM 44.6 °F 40.7 °F 32.0 °F 61% 30.14 in 10.0 mi West 6.9 mph - N/A   Clear
3:35 AM 44.6 °F 42.2 °F 32.0 °F 61% 30.14 in 10.0 mi West 4.6 mph - N/A   Clear
3:55 AM 42.8 °F 39.3 °F 32.0 °F 66% 30.14 in 10.0 mi West 5.8 mph - N/A   Clear
4:15 AM 42.8 °F 40.1 °F 33.8 °F 70% 30.14 in 10.0 mi NW 4.6 mph - N/A   Clear
4:35 AM 42.8 °F 41.1 °F 33.8 °F 70% 30.14 in 10.0 mi NW 3.5 mph - N/A   Clear
4:55 AM 41.0 °F - 33.8 °F 76% 30.14 in 10.0 mi Calm Calm - N/A   Clear
5:15 AM 39.2 °F 35.0 °F 32.0 °F 75% 30.14 in 10.0 mi WNW 5.8 mph - N/A   Clear
5:35 AM 39.2 °F 37.0 °F 32.0 °F 75% 30.14 in 10.0 mi WNW 3.5 mph - N/A   Clear
5:55 AM 37.4 °F 32.8 °F 32.0 °F 81% 30.14 in 10.0 mi West 5.8 mph - N/A   Clear
6:15 AM 41.0 °F 37.1 °F 33.8 °F 76% 30.14 in 10.0 mi NW 5.8 mph - N/A   Clear
6:35 AM 41.0 °F 39.0 °F 33.8 °F 76% 30.14 in 10.0 mi WNW 3.5 mph - N/A   Clear
6:55 AM 41.0 °F 38.0 °F 33.8 °F 76% 30.15 in 10.0 mi West 4.6 mph - N/A   Clear
7:15 AM 44.6 °F 42.2 °F 33.8 °F 66% 30.15 in 10.0 mi WNW 4.6 mph - N/A   Clear
7:35 AM 50.0 °F - 35.6 °F 58% 30.16 in 10.0 mi WNW 4.6 mph - N/A   Clear
7:55 AM 51.8 °F - 35.6 °F 54% 30.16 in 10.0 mi NW 3.5 mph - N/A   Clear
8:15 AM 55.4 °F - 35.6 °F 47% 30.16 in 10.0 mi NW 5.8 mph - N/A   Clear
8:35 AM 59.0 °F - 33.8 °F 39% 30.16 in 10.0 mi Calm Calm - N/A   Clear
8:55 AM 62.6 °F - 32.0 °F 32% 30.16 in 10.0 mi NW 3.5 mph - N/A   Clear
9:15 AM 66.2 °F - 32.0 °F 28% 30.16 in 10.0 mi Calm Calm - N/A   Clear
9:35 AM 69.8 °F - 32.0 °F 25% 30.16 in 10.0 mi Calm Calm - N/A   Clear
9:55 AM 71.6 °F - 28.4 °F 20% 30.16 in 10.0 mi Calm Calm - N/A   Clear
10:15 AM 73.4 °F - 23.0 °F 15% 30.16 in 10.0 mi NNW 5.8 mph - N/A   Clear
10:35 AM 75.2 °F - 28.4 °F 18% 30.16 in 10.0 mi NW 5.8 mph - N/A   Clear
10:55 AM 77.0 °F - 28.4 °F 17% 30.15 in 10.0 mi North 9.2 mph - N/A   Clear
11:15 AM 78.8 °F - 28.4 °F 16% 30.15 in 10.0 mi West 12.7 mph - N/A   Clear
12:15 PM 78.8 °F - 28.4 °F 16% 30.15 in 10.0 mi WNW 9.2 mph - N/A   Clear
12:35 PM 80.6 °F - 28.4 °F 15% 30.15 in 10.0 mi NNW 12.7 mph - N/A   Clear
12:55 PM 80.6 °F - 26.6 °F 14% 30.14 in 10.0 mi North 11.5 mph 16.1 mph N/A   Clear
1:15 PM 80.6 °F - 26.6 °F 14% 30.14 in 10.0 mi NNW 9.2 mph 16.1 mph N/A   Clear
1:35 PM 80.6 °F - 28.4 °F 15% 30.13 in 10.0 mi NW 11.5 mph 17.3 mph N/A   Clear
1:55 PM 82.4 °F - 28.4 °F 14% 30.13 in 10.0 mi North 8.1 mph 16.1 mph N/A   Clear
2:15 PM 82.4 °F - 28.4 °F 14% 30.13 in 10.0 mi WNW 10.4 mph 18.4 mph N/A   Clear
2:35 PM 84.2 °F - 19.4 °F 9% 30.13 in 10.0 mi NW 18.4 mph 27.6 mph N/A   Clear
2:55 PM 84.2 °F - 17.6 °F 8% 30.13 in 10.0 mi WNW 19.6 mph 27.6 mph N/A   Clear
3:15 PM 84.2 °F - 23.0 °F 11% 30.13 in 10.0 mi NW 13.8 mph 21.9 mph N/A   Clear
3:35 PM 84.2 °F - 21.2 °F 10% 30.13 in 10.0 mi West 16.1 mph 25.3 mph N/A   Clear
4:15 PM 84.2 °F - 19.4 °F 9% 30.13 in 10.0 mi WNW 12.7 mph 24.2 mph N/A   Clear
4:35 PM 84.2 °F - 19.4 °F 9% 30.12 in 10.0 mi WNW 12.7 mph 20.7 mph N/A   Clear
4:55 PM 82.4 °F - 23.0 °F 11% 30.12 in 10.0 mi NNW 10.4 mph 24.2 mph N/A   Clear
5:15 PM 84.2 °F - 21.2 °F 10% 30.12 in 10.0 mi West 20.7 mph 25.3 mph N/A   Clear
5:35 PM 82.4 °F - 21.2 °F 10% 30.12 in 10.0 mi West 16.1 mph - N/A   Clear
5:55 PM 82.4 °F - 21.2 °F 10% 30.12 in 10.0 mi WNW 18.4 mph 24.2 mph N/A   Clear
6:15 PM 82.4 °F - 19.4 °F 10% 30.11 in 10.0 mi WNW 16.1 mph 26.5 mph N/A   Clear
6:35 PM 82.4 °F - 19.4 °F 10% 30.11 in 10.0 mi West 17.3 mph 24.2 mph N/A   Clear
6:55 PM 80.6 °F - 21.2 °F 11% 30.11 in 10.0 mi West 16.1 mph - N/A   Clear
7:15 PM 80.6 °F - 23.0 °F 12% 30.11 in 10.0 mi West 13.8 mph 18.4 mph N/A   Clear
7:35 PM 78.8 °F - 23.0 °F 13% 30.12 in 10.0 mi West 10.4 mph - N/A   Clear
7:55 PM 78.8 °F - 21.2 °F 12% 30.13 in 10.0 mi West 11.5 mph - N/A   Clear
8:15 PM 75.2 °F - 21.2 °F 13% 30.13 in 10.0 mi West 9.2 mph - N/A   Clear
8:35 PM 71.6 °F - 21.2 °F 15% 30.14 in 10.0 mi West 8.1 mph - N/A   Clear
8:55 PM 68.0 °F - 21.2 °F 17% 30.14 in 10.0 mi West 8.1 mph - N/A   Clear
9:15 PM 66.2 °F - 21.2 °F 18% 30.14 in 10.0 mi West 8.1 mph - N/A   Clear
9:35 PM 62.6 °F - 26.6 °F 26% 30.16 in 10.0 mi NNW 8.1 mph - N/A   Clear
9:55 PM 64.4 °F - 19.4 °F 18% 30.16 in 10.0 mi WNW 8.1 mph - N/A   Clear
10:15 PM 60.8 °F - 24.8 °F 25% 30.17 in 10.0 mi NW 6.9 mph - N/A   Clear
10:35 PM 57.2 °F - 28.4 °F 33% 30.18 in 10.0 mi Calm Calm - N/A   Clear
10:55 PM 55.4 °F - 26.6 °F 33% 30.19 in 10.0 mi Calm Calm - N/A   Clear
11:15 PM 55.4 °F - 26.6 °F 33% 30.19 in 10.0 mi Calm Calm - N/A   Clear
11:35 PM 53.6 °F - 28.4 °F 38% 30.19 in 10.0 mi NW 4.6 mph - N/A   Clear
11:55 PM 50.0 °F - 28.4 °F 43% 30.19 in 10.0 mi NW 5.8 mph - N/A   Clear